NMSU Main Campus

2020-09-27 21:10:00

  • imperial
Date Time Air Temperature Relative Humidity Dewpoint Windchill Heat Index Wind Speed Wind Dir. Rain Solar Radiation Soil Temperature
2m 2m 3m 3m 10cm
US/Mountain F % F F F MPH deg in MJ/m^2 F
max avg avg
2020-09-26 21:20:00 81.1 19.2 35.2 81.1 81.1 2.4 2.6 2.1 124.0 122.6 0.00 0.0000000 87.1
2020-09-26 21:25:00 80.7 19.9 35.8 80.7 80.7 1.9 2.6 2.0 138.1 134.7 0.00 0.0000000 87.0
2020-09-26 21:30:00 80.4 20.3 36.1 80.4 80.4 1.3 3.0 1.6 146.1 138.3 0.00 0.0000000 86.9
2020-09-26 21:35:00 80.0 20.3 35.7 80.0 80.0 1.7 3.0 2.2 191.4 127.8 0.00 0.0000000 86.9
2020-09-26 21:40:00 79.9 20.0 35.3 79.9 79.9 1.2 2.6 1.6 116.9 119.6 0.00 0.0000000 86.8
2020-09-26 21:45:00 79.2 22.0 37.1 79.2 79.2 2.1 2.8 1.3 131.1 113.6 0.00 0.0000000 86.7
2020-09-26 21:50:00 78.5 23.6 38.4 78.5 78.5 1.3 3.5 2.2 73.9 106.3 0.00 0.0000000 86.6
2020-09-26 21:55:00 78.7 20.4 34.7 78.7 78.7 2.2 3.1 1.8 114.0 91.4 0.00 0.0000000 86.5
2020-09-26 22:00:00 79.1 23.3 38.5 79.1 79.1 1.9 3.3 2.5 106.3 113.7 0.00 0.0000000 86.4
2020-09-26 22:05:00 78.4 22.8 37.4 78.4 78.4 2.1 2.8 1.8 130.1 124.1 0.00 0.0000000 86.3
2020-09-26 22:10:00 79.2 21.6 36.6 79.2 79.2 2.1 3.8 2.3 130.1 125.7 0.00 0.0000000 86.2
2020-09-26 22:15:00 78.6 21.7 36.2 78.6 78.6 2.2 3.1 1.6 127.7 124.1 0.00 0.0000000 86.2
2020-09-26 22:20:00 78.2 22.8 37.2 78.2 78.2 1.0 2.2 1.2 164.8 116.2 0.00 0.0000000 86.0
2020-09-26 22:25:00 77.8 23.1 37.2 77.8 77.8 0.0 2.1 0.9 90.8 134.0 0.00 0.0000000 86.0
2020-09-26 22:30:00 77.6 24.9 38.9 77.6 77.6 2.1 3.0 1.2 51.6 106.2 0.00 0.0000000 85.9
2020-09-26 22:35:00 77.2 23.1 36.7 77.2 77.2 1.9 3.3 1.9 131.2 127.4 0.00 0.0000000 85.8
2020-09-26 22:40:00 77.5 23.6 37.4 77.5 77.5 1.2 3.7 2.3 141.6 118.1 0.00 0.0000000 85.7
2020-09-26 22:45:00 77.8 21.9 35.9 77.8 77.8 2.8 4.6 3.0 113.9 120.6 0.00 0.0000000 85.6
2020-09-26 22:50:00 78.4 20.6 34.7 78.4 78.4 1.5 3.0 1.8 128.9 120.4 0.00 0.0000000 85.6
2020-09-26 22:55:00 78.6 22.0 36.5 78.6 78.6 1.7 1.7 1.0 201.3 128.3 0.00 0.0000000 85.5
2020-09-26 23:00:00 77.3 22.3 35.9 77.3 77.3 1.3 3.1 1.9 73.1 176.3 0.00 0.0000000 85.4
2020-09-26 23:05:00 77.7 22.5 36.4 77.7 77.7 2.1 2.4 1.6 142.4 153.8 0.00 0.0000000 85.3
2020-09-26 23:10:00 77.0 25.3 38.7 77.0 77.0 0.8 2.6 1.9 161.9 141.3 0.00 0.0000000 85.2
2020-09-26 23:15:00 76.5 23.7 36.8 76.5 76.5 2.1 2.6 1.4 173.1 144.0 0.00 0.0000000 85.1
2020-09-26 23:20:00 76.4 24.9 37.9 76.4 76.4 1.3 3.5 2.2 130.4 156.2 0.00 0.0000000 85.1
2020-09-26 23:25:00 76.3 25.6 38.5 76.3 76.3 1.5 2.6 1.9 185.9 150.8 0.00 0.0000000 85.0
2020-09-26 23:30:00 75.7 23.9 36.2 75.7 75.7 0.0 1.7 0.5 214.6 298.1 0.00 0.0000000 84.9
2020-09-26 23:35:00 75.8 24.1 36.6 75.8 75.8 0.0 2.8 1.3 107.2 148.4 0.00 0.0000000 84.8
2020-09-26 23:40:00 75.4 24.5 36.6 75.4 75.4 3.0 3.0 0.9 212.7 279.4 0.00 0.0000000 84.7
2020-09-26 23:45:00 78.5 21.1 35.3 78.5 78.5 4.7 8.8 4.0 54.3 152.2 0.00 0.0000000 84.6
2020-09-26 23:50:00 79.5 19.6 34.4 79.5 79.5 3.7 5.1 3.4 302.3 274.8 0.00 0.0000000 84.5
2020-09-26 23:55:00 79.1 20.8 35.5 79.1 79.1 1.9 4.4 2.6 265.7 274.6 0.00 0.0000000 84.5
2020-09-27 00:00:00 78.6 22.0 36.6 78.6 78.6 0.0 3.5 1.7 333.1 348.1 0.00 0.0000000 84.4
2020-09-27 00:05:00 78.8 20.9 35.4 78.8 78.8 1.0 2.6 1.4 69.3 310.9 0.00 0.0000000 84.3
2020-09-27 00:10:00 79.6 19.8 34.7 79.6 79.6 1.9 6.5 3.0 332.3 307.2 0.00 0.0000000 84.2
2020-09-27 00:15:00 80.2 18.9 34.1 80.2 80.2 2.2 5.6 3.3 337.7 333.1 0.00 0.0000000 84.1
2020-09-27 00:20:00 80.2 19.2 34.4 80.2 80.2 2.8 3.0 2.0 40.7 13.9 0.00 0.0000000 84.1
2020-09-27 00:25:00 79.5 19.2 33.8 79.5 79.5 1.9 3.3 1.6 181.0 40.8 0.00 0.0000000 84.0
2020-09-27 00:30:00 78.8 19.8 34.1 78.8 78.8 3.3 3.8 1.7 330.3 317.1 0.00 0.0000000 83.9
2020-09-27 00:35:00 79.1 19.4 33.8 79.1 79.1 3.5 3.7 2.8 266.1 308.4 0.00 0.0000000 83.8
2020-09-27 00:40:00 79.0 19.2 33.4 79.0 79.0 1.9 4.6 2.9 230.5 288.3 0.00 0.0000000 83.8
2020-09-27 00:45:00 76.1 24.2 36.9 76.1 76.1 2.1 5.5 3.3 180.5 205.1 0.00 0.0000000 83.7
2020-09-27 00:50:00 74.7 26.2 37.8 74.7 74.7 0.0 2.1 0.9 188.7 178.0 0.00 0.0000000 83.6
2020-09-27 00:55:00 73.4 27.0 37.4 73.4 73.4 0.0 1.5 0.7 64.2 141.9 0.00 0.0000000 83.6
2020-09-27 01:00:00 72.8 28.0 37.8 72.8 72.8 0.0 1.3 0.5 122.4 106.8 0.00 0.0000000 83.5
2020-09-27 01:05:00 72.6 28.3 37.9 72.6 72.6 1.5 1.9 0.9 188.8 184.0 0.00 0.0000000 83.4
2020-09-27 01:10:00 72.0 29.1 38.1 72.0 72.0 0.0 1.3 0.5 162.7 154.9 0.00 0.0000000 83.3
2020-09-27 01:15:00 72.1 28.0 37.2 72.1 72.1 1.2 2.6 1.4 156.5 171.7 0.00 0.0000000 83.2
2020-09-27 01:20:00 71.6 30.6 39.1 71.6 71.6 0.0 1.0 0.1 175.1 177.9 0.00 0.0000000 83.2
2020-09-27 01:25:00 70.9 31.0 38.8 70.9 70.9 0.0 1.7 0.6 156.3 168.3 0.00 0.0000000 83.1
2020-09-27 01:30:00 70.3 31.2 38.4 70.3 70.3 1.0 1.2 0.4 129.5 159.5 0.00 0.0000000 83.0
2020-09-27 01:35:00 69.9 31.6 38.4 69.9 69.9 0.0 1.3 0.4 157.1 172.5 0.00 0.0000000 82.9
2020-09-27 01:40:00 69.7 31.7 38.2 69.7 69.7 0.0 1.0 0.1 211.9 230.3 0.00 0.0000000 82.9
2020-09-27 01:45:00 69.5 32.2 38.4 69.5 69.5 0.0 2.4 1.4 167.2 193.8 0.00 0.0000000 82.8
2020-09-27 01:50:00 69.7 31.6 38.2 69.7 69.7 0.0 0.8 0.0 95.6 160.6 0.00 0.0000000 82.7
2020-09-27 01:55:00 69.3 32.4 38.5 69.3 69.3 0.0 1.2 0.2 168.2 183.7 0.00 0.0000000 82.7
2020-09-27 02:00:00 69.1 33.8 39.4 69.1 69.1 0.8 1.5 0.6 71.2 55.6 0.00 0.0000000 82.6
2020-09-27 02:05:00 69.2 34.2 39.8 69.2 69.2 1.0 2.1 0.6 85.2 58.2 0.00 0.0000000 82.5
2020-09-27 02:10:00 69.3 34.6 40.1 69.3 69.3 0.0 1.3 0.5 131.6 100.4 0.00 0.0000000 82.5
2020-09-27 02:15:00 68.8 34.6 39.7 68.8 68.8 0.0 0.0 0.0 91.1 0.0 0.00 0.0000000 82.4
2020-09-27 02:20:00 68.9 35.2 40.3 68.9 68.9 0.0 0.8 0.1 94.6 169.4 0.00 0.0000000 82.3
2020-09-27 02:25:00 68.7 36.4 40.9 68.7 68.7 0.0 0.8 0.1 167.6 92.6 0.00 0.0000000 82.3
2020-09-27 02:30:00 68.0 37.1 40.8 68.0 68.0 0.0 0.0 0.0 155.1 0.0 0.00 0.0000000 82.2
2020-09-27 02:35:00 67.6 37.3 40.6 67.6 67.6 0.0 0.0 0.0 195.4 0.0 0.00 0.0000000 82.1
2020-09-27 02:40:00 67.2 37.2 40.2 67.2 67.2 0.0 0.8 0.0 102.1 94.0 0.00 0.0000000 82.0
2020-09-27 02:45:00 67.4 37.9 40.9 67.4 67.4 0.0 0.0 0.0 126.0 0.0 0.00 0.0000000 82.0
2020-09-27 02:50:00 67.3 37.8 40.6 67.3 67.3 1.5 2.1 0.9 228.5 204.6 0.00 0.0000000 81.9
2020-09-27 02:55:00 67.3 38.1 40.8 67.3 67.3 1.2 1.5 1.0 208.5 229.4 0.00 0.0000000 81.8
2020-09-27 03:00:00 67.1 38.2 40.7 67.1 67.1 0.0 1.5 0.3 191.6 214.1 0.00 0.0000000 81.8
2020-09-27 03:05:00 66.5 38.0 40.2 66.5 66.5 0.0 0.0 0.0 88.3 0.0 0.00 0.0000000 81.7
2020-09-27 03:10:00 66.7 38.4 40.5 66.7 66.7 0.0 0.0 0.0 88.5 0.0 0.00 0.0000000 81.6
2020-09-27 03:15:00 65.9 39.0 40.2 65.9 65.9 0.0 0.0 0.0 80.4 0.0 0.00 0.0000000 81.6
2020-09-27 03:20:00 65.6 39.2 40.1 65.6 65.6 1.5 1.5 0.1 291.0 288.0 0.00 0.0000000 81.5
2020-09-27 03:25:00 66.2 38.8 40.4 66.2 66.2 1.7 2.1 1.7 300.2 295.2 0.00 0.0000000 81.4
2020-09-27 03:30:00 66.2 38.8 40.4 66.2 66.2 0.0 1.7 0.8 331.2 322.6 0.00 0.0000000 81.3
2020-09-27 03:35:00 66.0 38.7 40.2 66.0 66.0 0.0 1.2 0.3 290.6 313.1 0.00 0.0000000 81.3
2020-09-27 03:40:00 65.5 39.2 40.0 65.5 65.5 0.0 0.0 0.0 322.8 0.0 0.00 0.0000000 81.2
2020-09-27 03:45:00 65.4 39.2 39.9 65.4 65.4 1.0 1.0 0.1 332.4 324.6 0.00 0.0000000 81.1
2020-09-27 03:50:00 65.4 39.2 39.9 65.4 65.4 2.1 2.8 2.2 326.8 332.9 0.00 0.0000000 81.1
2020-09-27 03:55:00 65.5 39.4 40.2 65.5 65.5 1.3 2.4 1.6 307.4 308.8 0.00 0.0000000 81.0
2020-09-27 04:00:00 65.6 36.1 38.0 65.6 65.6 1.9 2.1 1.6 323.9 315.9 0.00 0.0000000 80.9
2020-09-27 04:05:00 66.4 34.5 37.5 66.4 66.4 3.0 3.0 2.2 338.7 346.5 0.00 0.0000000 80.9
2020-09-27 04:10:00 66.7 33.4 37.0 66.7 66.7 2.1 3.1 2.3 314.2 327.0 0.00 0.0000000 80.8
2020-09-27 04:15:00 67.0 33.0 37.0 67.0 67.0 2.6 2.8 2.1 309.6 323.4 0.00 0.0000000 80.7
2020-09-27 04:20:00 67.2 33.1 37.1 67.2 67.2 2.6 3.8 2.9 289.0 312.4 0.00 0.0000000 80.6
2020-09-27 04:25:00 67.7 32.2 36.9 67.7 67.7 3.7 5.1 3.9 291.8 306.8 0.00 0.0000000 80.6
2020-09-27 04:30:00 67.5 31.8 36.5 67.5 67.5 1.2 4.4 2.7 6.7 322.7 0.00 0.0000000 80.5
2020-09-27 04:35:00 67.6 31.5 36.2 67.6 67.6 0.0 2.2 0.5 258.3 355.6 0.00 0.0000000 80.4
2020-09-27 04:40:00 67.2 33.8 37.7 67.2 67.2 2.1 2.1 0.5 233.2 188.1 0.00 0.0000000 80.4
2020-09-27 04:45:00 67.1 32.8 36.9 67.1 67.1 1.5 2.6 2.1 194.0 200.6 0.00 0.0000000 80.3
2020-09-27 04:50:00 66.7 35.0 38.2 66.7 66.7 3.5 3.7 2.5 186.6 169.2 0.00 0.0000000 80.2
2020-09-27 04:55:00 65.3 37.3 38.6 65.3 65.3 1.2 3.5 2.3 185.2 177.3 0.00 0.0000000 80.2
2020-09-27 05:00:00 64.7 38.1 38.6 64.7 64.7 0.8 1.5 0.3 109.9 141.0 0.00 0.0000000 80.2
2020-09-27 05:05:00 64.3 38.4 38.4 64.3 64.3 0.0 1.5 0.4 139.0 108.0 0.00 0.0000000 80.0
2020-09-27 05:10:00 64.4 38.4 38.5 64.4 64.4 1.3 2.1 1.4 129.1 164.9 0.00 0.0000000 80.0
2020-09-27 05:15:00 64.2 39.1 38.8 64.2 64.2 2.2 2.6 1.5 202.1 186.1 0.00 0.0000000 80.0
2020-09-27 05:20:00 63.8 40.4 39.3 63.8 63.8 1.9 2.6 1.6 224.4 185.1 0.00 0.0000000 79.9
2020-09-27 05:25:00 63.5 41.9 39.9 63.5 63.5 3.0 3.1 2.0 229.5 206.2 0.00 0.0000000 79.8
2020-09-27 05:30:00 63.2 42.3 39.9 63.2 63.2 0.8 3.3 1.4 200.8 198.4 0.00 0.0000000 79.8
2020-09-27 05:35:00 63.0 42.3 39.7 63.0 63.0 1.9 3.1 1.4 226.4 214.3 0.00 0.0000000 79.7
2020-09-27 05:40:00 63.1 41.6 39.4 63.1 63.1 0.8 2.1 1.3 271.7 232.7 0.00 0.0000000 79.6
2020-09-27 05:45:00 63.2 41.0 39.1 63.2 63.2 1.0 2.4 1.0 319.3 274.9 0.00 0.0000000 79.6
2020-09-27 05:50:00 63.3 41.2 39.4 63.3 63.3 2.2 2.8 1.4 291.5 291.1 0.00 0.0000000 79.5
2020-09-27 05:55:00 63.2 41.3 39.2 63.2 63.2 1.2 2.4 1.4 324.4 292.7 0.00 0.0000000 79.4
2020-09-27 06:00:00 63.0 41.3 39.1 63.0 63.0 1.5 1.7 1.0 319.3 310.6 0.00 0.0000000 79.4
2020-09-27 06:05:00 63.3 40.6 38.9 63.3 63.3 2.2 3.0 2.2 3.1 12.3 0.00 0.0000000 79.3
2020-09-27 06:10:00 63.7 41.4 39.8 63.7 63.7 1.0 2.6 1.8 55.7 17.1 0.00 0.0000000 79.3
2020-09-27 06:15:00 63.2 42.4 40.0 63.2 63.2 0.8 1.0 0.1 39.4 54.9 0.00 0.0000000 79.2
2020-09-27 06:20:00 63.4 42.8 40.4 63.4 63.4 0.0 3.1 1.9 18.8 39.0 0.00 0.0000000 79.1
2020-09-27 06:25:00 63.2 42.4 39.9 63.2 63.2 1.3 2.2 1.4 8.9 336.8 0.00 0.0000000 79.1
2020-09-27 06:30:00 62.6 43.1 39.8 62.6 62.6 0.0 1.5 0.9 314.1 322.9 0.00 0.0000000 79.0
2020-09-27 06:35:00 62.3 44.3 40.3 62.3 62.3 1.9 1.9 0.8 193.8 211.6 0.00 0.0000000 79.0
2020-09-27 06:40:00 62.2 43.5 39.7 62.2 62.2 0.0 1.5 0.2 85.5 197.9 0.00 0.0000241 78.9
2020-09-27 06:45:00 62.2 45.5 40.9 62.2 62.2 1.0 1.7 0.6 136.5 105.0 0.00 0.0001045 78.8
2020-09-27 06:50:00 61.6 45.8 40.5 61.6 61.6 0.0 0.0 0.0 152.2 0.0 0.00 0.0002914 78.8
2020-09-27 06:55:00 61.7 44.7 40.0 61.7 61.7 0.0 0.0 0.0 93.4 0.0 0.00 0.0005406 78.7
2020-09-27 07:00:00 61.5 45.6 40.3 61.5 61.5 0.0 1.3 0.4 97.6 96.6 0.00 0.0010089 78.7
2020-09-27 07:05:00 62.1 44.6 40.3 62.1 62.1 1.9 1.9 0.4 51.6 72.0 0.00 0.0017667 78.6
2020-09-27 07:10:00 62.4 44.2 40.4 62.4 62.4 0.0 1.9 0.5 59.4 55.2 0.00 0.0027053 78.6
2020-09-27 07:15:00 62.2 42.8 39.3 62.2 62.2 0.0 1.5 0.6 293.0 293.4 0.00 0.0037063 78.5
2020-09-27 07:20:00 62.2 42.2 39.0 62.2 62.2 2.1 2.1 1.5 319.9 330.0 0.00 0.0047736 78.5
2020-09-27 07:25:00 62.3 42.7 39.3 62.3 62.3 2.6 2.8 2.4 328.1 321.8 0.00 0.0057083 78.4
2020-09-27 07:30:00 62.0 42.6 39.0 62.0 62.0 0.0 2.2 1.1 4.8 331.9 0.00 0.0067958 78.4
2020-09-27 07:35:00 62.1 41.1 38.2 62.1 62.1 0.0 0.0 0.0 1.8 0.0 0.00 0.0098610 78.3
2020-09-27 07:40:00 62.6 40.9 38.5 62.6 62.6 0.8 1.5 0.4 30.0 30.0 0.00 0.0158587 78.2
2020-09-27 07:45:00 63.8 38.6 38.1 63.8 63.8 0.0 1.2 0.2 324.9 21.9 0.00 0.0293662 78.2
2020-09-27 07:50:00 64.6 36.6 37.5 64.6 64.6 0.0 0.0 0.0 331.1 0.0 0.00 0.0350282 78.1
2020-09-27 07:55:00 65.7 37.6 39.2 65.7 65.7 0.0 0.0 0.0 216.3 0.0 0.00 0.0398011 78.1
2020-09-27 08:00:00 67.7 35.8 39.6 67.7 67.7 0.0 0.0 0.0 220.2 0.0 0.00 0.0446092 78.0
2020-09-27 08:05:00 69.6 32.5 38.8 69.6 69.6 0.0 0.0 0.0 222.0 0.0 0.00 0.0495027 78.0
2020-09-27 08:10:00 69.5 33.6 39.6 69.5 69.5 0.0 1.3 0.4 319.5 308.5 0.00 0.0542758 77.9
2020-09-27 08:15:00 69.9 33.1 39.6 69.9 69.9 1.2 2.2 0.6 305.2 317.6 0.00 0.0591731 77.9
2020-09-27 08:20:00 70.1 32.8 39.5 70.1 70.1 1.5 2.4 1.6 293.5 298.4 0.00 0.0642176 77.8
2020-09-27 08:25:00 70.4 30.3 37.8 70.4 70.4 1.2 3.3 2.2 293.7 309.1 0.00 0.0695932 77.8
2020-09-27 08:30:00 71.2 31.2 39.1 71.2 71.2 1.3 2.4 1.7 331.6 315.0 0.00 0.0749444 77.7
2020-09-27 08:35:00 71.7 30.4 39.0 71.7 71.7 2.6 3.3 2.3 316.4 308.6 0.00 0.0796863 77.7
2020-09-27 08:40:00 72.4 29.7 39.0 72.4 72.4 1.5 2.8 1.9 0.0 308.1 0.00 0.0846698 77.6
2020-09-27 08:45:00 74.0 30.2 40.8 74.0 74.0 2.4 2.8 0.7 286.1 284.7 0.00 0.0899183 77.6
2020-09-27 08:50:00 74.6 27.7 39.1 74.6 74.6 2.1 2.6 2.1 247.7 266.2 0.00 0.0874507 77.6
2020-09-27 08:55:00 75.1 25.5 37.4 75.1 75.1 1.9 4.2 2.9 283.5 248.6 0.00 0.1007750 77.6
2020-09-27 09:00:00 75.1 30.1 41.6 75.1 75.1 1.5 4.0 2.9 286.7 253.0 0.00 0.1067891 77.5
2020-09-27 09:05:00 75.6 25.9 38.2 75.6 75.6 3.8 4.6 2.8 297.0 291.3 0.00 0.1122022 77.5
2020-09-27 09:10:00 76.0 25.5 38.2 76.0 76.0 3.0 4.2 2.9 285.5 279.2 0.00 0.1174235 77.5
2020-09-27 09:15:00 76.6 26.5 39.7 76.6 76.6 4.6 4.7 3.0 286.4 281.2 0.00 0.1225014 77.5
2020-09-27 09:20:00 77.1 25.8 39.3 77.1 77.1 4.4 5.1 3.2 304.2 287.0 0.00 0.1274613 77.5
2020-09-27 09:25:00 77.7 25.3 39.4 77.7 77.7 2.8 4.0 2.8 286.7 277.2 0.00 0.1324852 77.5
2020-09-27 09:30:00 78.2 27.1 41.5 78.2 78.2 3.7 3.8 3.0 316.3 287.3 0.00 0.1375024 77.5
2020-09-27 09:35:00 79.6 20.0 35.0 79.6 79.6 7.4 7.4 4.4 327.0 329.5 0.00 0.1423831 77.6
2020-09-27 09:40:00 80.1 21.0 36.6 80.1 80.1 4.6 6.9 5.2 13.4 2.6 0.00 0.1474236 77.6
2020-09-27 09:45:00 80.5 19.7 35.4 80.5 80.5 6.5 9.0 5.7 324.3 328.1 0.00 0.1207910 77.6
2020-09-27 09:50:00 80.7 19.7 35.5 80.7 80.7 4.7 9.7 6.2 0.0 334.1 0.00 0.0098317 77.7
2020-09-27 09:55:00 81.0 20.8 37.2 81.0 81.0 4.2 9.0 5.8 333.1 338.6 0.00 0.0355355 77.7
2020-09-27 10:00:00 81.6 18.5 34.7 81.6 81.6 7.2 7.2 4.8 40.5 358.5 0.00 0.1511108 77.8
2020-09-27 10:05:00 81.7 18.3 34.5 81.7 81.7 4.7 8.1 5.6 29.9 16.4 0.00 0.1603502 77.8
2020-09-27 10:10:00 81.6 18.6 34.8 81.6 81.6 5.8 9.6 5.9 335.0 342.8 0.00 0.1668275 77.9
2020-09-27 10:15:00 82.0 18.8 35.4 82.0 82.0 4.7 6.5 5.0 12.9 4.7 0.00 0.1405780 78.0
2020-09-27 10:20:00 81.4 18.5 34.5 81.4 81.4 4.7 9.9 6.0 337.4 354.3 0.00 0.1875250 78.1
2020-09-27 10:25:00 81.5 18.3 34.3 81.5 81.5 4.0 8.3 5.5 332.5 330.0 0.00 0.1848224 78.2
2020-09-27 10:30:00 82.3 21.8 39.4 82.3 82.3 3.5 6.5 4.2 20.4 349.8 0.00 0.1887947 78.3
2020-09-27 10:35:00 82.6 19.9 37.3 82.6 82.6 2.1 4.0 2.3 75.1 15.0 0.00 0.1927213 78.4
2020-09-27 10:40:00 83.7 19.4 37.6 83.7 83.7 2.2 5.3 2.4 38.2 11.4 0.00 0.1968744 78.4
2020-09-27 10:45:00 83.2 20.6 38.6 83.2 83.2 3.7 7.8 5.1 304.9 305.7 0.00 0.2002494 78.5
2020-09-27 10:50:00 83.4 18.7 36.4 83.4 83.4 1.2 5.8 3.6 69.3 22.3 0.00 0.2035552 78.7
2020-09-27 10:55:00 84.1 17.9 35.9 84.1 84.1 3.5 4.9 3.3 306.8 5.5 0.00 0.2072285 78.8
2020-09-27 11:00:00 83.5 18.2 35.8 83.5 83.5 2.8 7.4 5.0 338.4 299.4 0.00 0.2102057 78.9
2020-09-27 11:05:00 84.8 18.6 37.5 84.8 84.8 4.2 4.9 3.2 308.0 300.4 0.00 0.2135843 79.0
2020-09-27 11:10:00 85.0 16.2 34.1 85.0 85.0 4.6 8.1 4.7 309.1 325.9 0.00 0.2172358 79.1
2020-09-27 11:15:00 85.2 15.5 33.2 85.2 85.2 5.3 6.3 4.5 297.0 303.6 0.00 0.2200531 79.3
2020-09-27 11:20:00 85.4 18.6 38.0 85.4 85.4 3.3 7.8 4.9 256.1 297.1 0.00 0.2228348 79.4
2020-09-27 11:25:00 85.9 16.7 35.5 85.9 85.9 3.3 8.3 5.5 337.6 292.0 0.00 0.2258365 79.5
2020-09-27 11:30:00 86.1 14.3 31.9 86.1 86.1 9.4 9.4 5.7 327.7 313.3 0.00 0.2280435 79.7
2020-09-27 11:35:00 86.8 13.7 31.3 86.8 86.8 6.2 8.8 5.1 0.0 338.5 0.00 0.2303360 79.8
2020-09-27 11:40:00 86.9 13.0 30.2 86.9 86.9 7.1 8.0 4.7 16.1 328.5 0.00 0.2325672 80.0
2020-09-27 11:45:00 87.0 13.3 30.8 87.0 87.0 6.3 7.4 5.6 303.4 327.1 0.00 0.2345421 80.1
2020-09-27 11:50:00 87.1 13.4 31.0 87.1 87.1 1.9 6.5 3.9 277.7 330.9 0.00 0.2365210 80.3
2020-09-27 11:55:00 88.3 15.0 34.7 88.3 88.3 2.4 5.1 3.1 19.1 320.5 0.00 0.2384932 80.4
2020-09-27 12:00:00 88.0 13.2 31.4 88.0 88.0 4.7 9.9 6.6 237.8 310.3 0.00 0.2403508 80.6
2020-09-27 12:05:00 88.5 14.6 34.2 88.5 88.5 4.7 7.6 4.3 309.3 288.9 0.00 0.2415471 80.8
2020-09-27 12:10:00 88.4 12.7 30.8 88.4 88.4 2.6 9.0 4.0 138.6 287.9 0.00 0.2426922 81.0
2020-09-27 12:15:00 89.0 13.1 31.9 89.0 89.0 2.1 4.9 2.3 0.8 110.2 0.00 0.2441914 81.1
2020-09-27 12:20:00 88.8 13.3 32.2 88.8 88.8 3.0 6.0 3.3 71.0 123.7 0.00 0.2460457 81.3
2020-09-27 12:25:00 89.3 13.8 33.5 89.3 89.3 5.3 8.1 4.3 241.0 233.6 0.00 0.2468220 81.5
2020-09-27 12:30:00 89.6 12.3 30.8 89.6 89.6 3.7 5.1 2.6 243.5 275.1 0.00 0.2478944 81.7
2020-09-27 12:35:00 89.7 13.2 32.6 89.7 89.7 3.3 5.1 3.3 205.8 206.6 0.00 0.2487072 81.8
2020-09-27 12:40:00 90.3 12.7 32.3 90.3 90.3 3.0 5.3 2.5 222.9 218.0 0.00 0.2489764 82.0
2020-09-27 12:45:00 89.9 13.7 33.9 89.9 89.9 2.4 5.3 3.3 102.0 26.9 0.00 0.2494618 82.2
2020-09-27 12:50:00 90.1 13.0 32.6 90.1 90.1 3.1 6.7 3.4 112.8 63.2 0.00 0.2499154 82.4
2020-09-27 12:55:00 90.1 13.4 33.4 90.1 90.1 6.2 7.1 3.9 31.2 43.6 0.00 0.2497312 82.6
2020-09-27 13:00:00 90.4 12.5 31.9 90.4 90.4 4.2 6.2 3.6 106.9 61.7 0.00 0.2500368 82.7
2020-09-27 13:05:00 91.6 13.2 34.2 91.6 91.6 2.6 4.0 2.6 58.5 65.0 0.00 0.2496036 82.9
2020-09-27 13:10:00 91.3 11.9 31.3 91.3 91.3 4.9 6.0 3.8 333.4 25.0 0.00 0.2499717 83.1
2020-09-27 13:15:00 90.7 11.4 29.8 90.7 90.7 7.1 7.1 5.0 330.8 338.6 0.00 0.2493220 83.3
2020-09-27 13:20:00 91.1 11.9 31.3 91.1 91.1 2.2 6.9 3.5 210.1 245.3 0.00 0.2490858 83.5
2020-09-27 13:25:00 91.6 10.6 28.8 91.6 91.6 5.5 6.9 4.0 173.7 146.7 0.00 0.2486361 83.7
2020-09-27 13:30:00 92.0 11.5 31.1 92.0 92.0 3.1 5.5 2.6 119.9 68.1 0.00 0.2477325 83.9
2020-09-27 13:35:00 93.3 11.4 31.8 93.3 93.3 3.7 4.0 2.7 161.1 123.0 0.00 0.2477323 84.1
2020-09-27 13:40:00 92.8 11.0 30.5 92.8 92.8 3.3 6.0 3.7 113.2 178.7 0.00 0.2461462 84.3
2020-09-27 13:45:00 92.9 13.7 36.2 92.9 92.9 1.9 4.4 2.6 208.7 212.3 0.00 0.2446810 84.5
2020-09-27 13:50:00 93.7 12.1 33.7 93.7 93.7 4.4 4.4 2.5 30.7 161.8 0.00 0.2439003 84.6
2020-09-27 13:55:00 93.5 13.5 36.2 93.5 93.5 2.8 5.3 3.0 64.3 64.5 0.00 0.2420277 84.8
2020-09-27 14:00:00 93.3 9.8 28.2 93.3 93.3 2.2 5.5 3.6 7.1 32.1 0.00 0.2409170 85.0
2020-09-27 14:05:00 94.3 11.0 31.7 94.3 94.3 5.5 10.6 3.3 301.3 303.5 0.00 0.2399903 85.1
2020-09-27 14:10:00 94.7 9.4 28.1 94.7 94.7 3.1 8.1 5.1 272.0 277.4 0.00 0.2383745 85.2
2020-09-27 14:15:00 94.7 8.8 26.5 94.7 94.7 6.9 8.8 5.8 326.7 302.1 0.00 0.2364673 85.4
2020-09-27 14:20:00 94.6 9.1 27.2 94.6 94.6 6.9 9.7 6.6 257.4 264.3 0.00 0.2339641 85.5
2020-09-27 14:25:00 94.6 9.4 28.2 94.6 94.6 8.1 12.2 9.3 314.4 293.3 0.00 0.2316028 85.6
2020-09-27 14:30:00 94.4 9.1 27.0 94.4 94.4 5.3 14.2 8.1 291.3 274.7 0.00 0.2296254 85.7
2020-09-27 14:35:00 94.2 7.9 23.6 94.2 94.2 7.8 17.1 8.4 297.9 278.9 0.00 0.2265767 85.8
2020-09-27 14:40:00 94.8 8.6 26.2 94.8 94.8 8.1 10.6 7.3 280.3 283.2 0.00 0.2250102 85.9
2020-09-27 14:45:00 94.7 7.9 23.9 94.7 94.7 3.8 10.1 6.4 230.6 290.6 0.00 0.2222466 86.0
2020-09-27 14:50:00 95.1 7.7 23.8 95.1 95.1 7.1 9.9 6.4 298.9 286.5 0.00 0.2195687 86.0
2020-09-27 14:55:00 95.2 7.8 24.2 95.2 95.2 8.8 9.6 6.3 212.8 254.3 0.00 0.2173075 86.1
2020-09-27 15:00:00 95.0 9.0 27.4 95.0 95.0 5.6 13.0 7.4 232.1 261.4 0.00 0.2128407 86.1
2020-09-27 15:05:00 95.1 8.5 25.9 95.1 95.1 5.6 13.3 7.7 245.8 268.1 0.00 0.2105087 86.2
2020-09-27 15:10:00 94.5 9.0 27.0 94.5 94.5 6.0 9.4 7.2 229.7 267.6 0.00 0.2072293 86.3
2020-09-27 15:15:00 94.8 9.9 29.6 94.8 94.8 8.7 8.7 5.9 252.9 278.6 0.00 0.2025950 86.4
2020-09-27 15:20:00 95.1 8.1 24.8 95.1 95.1 9.0 13.5 10.3 307.2 310.6 0.00 0.1988229 86.5
2020-09-27 15:25:00 94.4 9.7 28.7 94.4 94.4 8.0 11.7 6.6 42.2 306.7 0.00 0.1947603 86.6
2020-09-27 15:30:00 94.1 9.5 27.9 94.1 94.1 9.0 12.8 6.5 0.0 348.0 0.00 0.1909219 86.6
2020-09-27 15:35:00 94.8 10.5 30.9 94.8 94.8 6.3 11.0 7.3 283.5 326.4 0.00 0.1870162 86.7
2020-09-27 15:40:00 94.7 9.3 28.0 94.7 94.7 6.7 11.2 7.8 299.4 323.8 0.00 0.1827735 86.8
2020-09-27 15:45:00 94.4 8.9 26.5 94.4 94.4 7.2 10.1 6.9 321.5 342.5 0.00 0.1791197 86.9
2020-09-27 15:50:00 94.9 9.3 27.9 94.9 94.9 7.2 10.1 7.6 324.3 334.7 0.00 0.1745666 87.0
2020-09-27 15:55:00 94.6 8.7 26.3 94.6 94.6 7.2 11.3 7.9 333.6 341.8 0.00 0.1705694 87.1
2020-09-27 16:00:00 93.9 8.7 25.7 93.9 93.9 7.1 8.5 6.3 338.0 323.1 0.00 0.1663233 87.2
2020-09-27 16:05:00 94.4 8.4 25.1 94.4 94.4 6.9 11.7 8.8 336.6 322.7 0.00 0.1621110 87.3
2020-09-27 16:10:00 94.7 8.8 26.5 94.7 94.7 6.2 10.5 6.6 323.0 343.7 0.00 0.1578677 87.4
2020-09-27 16:15:00 94.9 8.5 25.7 94.9 94.9 7.8 12.2 7.8 326.7 333.2 0.00 0.1539827 87.5
2020-09-27 16:20:00 94.3 8.2 24.5 94.3 94.3 8.3 11.7 6.9 311.2 328.9 0.00 0.1490034 87.7
2020-09-27 16:25:00 94.6 8.1 24.5 94.6 94.6 9.7 13.7 9.5 312.4 330.8 0.00 0.1443574 87.8
2020-09-27 16:30:00 94.7 8.2 24.7 94.7 94.7 9.9 13.5 7.5 298.8 334.9 0.00 0.1398180 87.9
2020-09-27 16:35:00 94.6 7.9 24.1 94.6 94.6 13.3 14.6 11.1 337.1 325.4 0.00 0.1347957 87.9
2020-09-27 16:40:00 94.0 8.2 24.4 94.0 94.0 9.7 13.3 9.7 339.1 332.5 0.00 0.1300697 88.0
2020-09-27 16:45:00 94.3 8.5 25.3 94.3 94.3 8.1 14.9 10.4 310.9 327.8 0.00 0.1249747 88.1
2020-09-27 16:50:00 94.9 9.0 27.3 94.9 94.9 4.4 9.6 7.6 20.4 318.8 0.00 0.1200849 88.2
2020-09-27 16:55:00 94.6 8.3 25.0 94.6 94.6 11.0 14.2 9.2 319.0 329.6 0.00 0.1153857 88.3
2020-09-27 17:00:00 94.7 8.2 24.9 94.7 94.7 8.1 11.9 9.2 313.4 325.8 0.00 0.1104739 88.4
2020-09-27 17:05:00 94.2 8.4 25.1 94.2 94.2 6.5 11.9 9.1 318.6 322.8 0.00 0.1052103 88.4
2020-09-27 17:10:00 94.2 7.9 23.8 94.2 94.2 9.6 11.5 8.4 309.1 333.4 0.00 0.1002698 88.5
2020-09-27 17:15:00 93.7 8.2 24.0 93.7 93.7 9.9 12.8 7.5 6.7 327.8 0.00 0.0939749 88.6
2020-09-27 17:20:00 94.0 8.4 24.8 94.0 94.0 10.5 10.5 6.5 0.6 352.8 0.00 0.0845411 88.6
2020-09-27 17:25:00 94.0 8.3 24.7 94.0 94.0 6.5 10.8 6.8 317.7 341.8 0.00 0.0796103 88.7
2020-09-27 17:30:00 93.6 8.5 24.8 93.6 93.6 7.2 10.6 6.7 302.7 323.5 0.00 0.0762105 88.7
2020-09-27 17:35:00 93.4 8.4 24.5 93.4 93.4 8.7 9.2 6.7 295.2 338.9 0.00 0.0648811 88.8
2020-09-27 17:40:00 93.4 8.5 24.7 93.4 93.4 4.4 8.0 5.4 327.1 334.6 0.00 0.0551396 88.8
2020-09-27 17:45:00 93.7 8.4 24.7 93.7 93.7 4.9 10.3 6.0 1.1 343.9 0.00 0.0593126 88.8
2020-09-27 17:50:00 93.9 8.2 24.1 93.9 93.9 7.8 9.4 5.6 320.0 340.8 0.00 0.0574590 88.9
2020-09-27 17:55:00 93.5 8.3 24.3 93.5 93.5 4.9 7.1 4.9 0.2 332.1 0.00 0.0510867 88.9
2020-09-27 18:00:00 93.3 8.6 25.0 93.3 93.3 5.5 8.3 6.0 339.0 321.1 0.00 0.0471413 88.9
2020-09-27 18:05:00 93.4 9.1 26.4 93.4 93.4 3.5 6.2 4.4 4.7 0.6 0.00 0.0428891 89.0
2020-09-27 18:10:00 93.1 8.8 25.5 93.1 93.1 3.5 6.2 4.2 17.3 345.9 0.00 0.0365812 89.0
2020-09-27 18:15:00 93.1 8.6 24.9 93.1 93.1 3.3 4.2 3.3 6.1 19.4 0.00 0.0337059 89.0
2020-09-27 18:20:00 92.9 8.7 25.0 92.9 92.9 3.8 5.1 3.7 16.5 22.3 0.00 0.0277951 89.0
2020-09-27 18:25:00 92.7 9.1 25.8 92.7 92.7 0.0 3.1 1.3 278.5 325.7 0.00 0.0195256 89.0
2020-09-27 18:30:00 92.6 9.9 27.8 92.6 92.6 0.0 0.8 0.0 134.6 123.0 0.00 0.0143727 89.0
2020-09-27 18:35:00 91.4 11.4 30.3 91.4 91.4 1.2 1.3 0.5 184.6 132.3 0.00 0.0081669 89.0
2020-09-27 18:40:00 89.8 12.6 31.5 89.8 89.8 0.8 1.5 0.8 137.7 198.3 0.00 0.0052036 89.0
2020-09-27 18:45:00 88.7 13.4 32.3 88.7 88.7 1.3 1.9 1.3 111.8 110.5 0.00 0.0041752 89.0
2020-09-27 18:50:00 87.6 14.3 33.0 87.6 87.6 1.2 1.5 1.0 111.2 120.2 0.00 0.0030965 89.0
2020-09-27 18:55:00 86.7 15.1 33.7 86.7 86.7 0.8 1.2 0.4 131.0 118.0 0.00 0.0020699 88.9
2020-09-27 19:00:00 85.7 16.3 34.8 85.7 85.7 0.0 0.8 0.0 170.7 191.0 0.00 0.0012135 88.9
2020-09-27 19:05:00 85.1 16.1 34.0 85.1 85.1 3.8 4.9 2.6 191.9 187.9 0.00 0.0006479 88.9
2020-09-27 19:10:00 84.3 20.8 39.9 84.3 84.3 2.2 5.1 3.3 197.7 199.9 0.00 0.0003591 88.8
2020-09-27 19:15:00 83.7 20.3 38.7 83.7 83.7 2.2 3.7 2.1 228.0 191.3 0.00 0.0001525 88.8
2020-09-27 19:20:00 84.3 16.4 33.9 84.3 84.3 3.3 4.6 2.8 228.6 180.5 0.00 0.0000261 88.7
2020-09-27 19:25:00 85.6 15.9 34.1 85.6 85.6 4.0 7.6 4.3 230.4 205.5 0.00 0.0000000 88.7
2020-09-27 19:30:00 88.1 12.5 30.0 88.1 88.1 2.8 9.0 5.1 283.2 261.7 0.00 0.0000000 88.6
2020-09-27 19:35:00 88.7 12.4 30.4 88.7 88.7 1.9 8.7 4.5 238.9 252.7 0.00 0.0000000 88.6
2020-09-27 19:40:00 88.4 12.4 30.1 88.4 88.4 4.6 5.3 2.9 240.0 238.5 0.00 0.0000000 88.5
2020-09-27 19:45:00 88.4 13.1 31.5 88.4 88.4 3.3 5.1 2.6 248.8 244.7 0.00 0.0000000 88.4
2020-09-27 19:50:00 87.2 13.7 31.6 87.2 87.2 2.1 3.1 1.0 180.0 259.0 0.00 0.0000000 88.4
2020-09-27 19:55:00 86.1 14.2 31.6 86.1 86.1 2.2 2.2 0.7 194.3 171.6 0.00 0.0000000 88.3
2020-09-27 20:00:00 85.6 14.6 32.0 85.6 85.6 0.0 2.2 1.0 209.2 213.6 0.00 0.0000000 88.2
2020-09-27 20:05:00 84.5 15.2 32.2 84.5 84.5 0.0 1.5 0.5 175.1 173.6 0.00 0.0000000 88.1
2020-09-27 20:10:00 84.5 14.6 31.1 84.5 84.5 2.1 3.7 2.0 242.2 255.2 0.00 0.0000000 88.1
2020-09-27 20:15:00 84.7 14.6 31.3 84.7 84.7 1.0 2.8 0.9 241.0 277.6 0.00 0.0000000 88.0
2020-09-27 20:20:00 83.8 15.1 31.3 83.8 83.8 0.0 1.7 0.5 28.8 217.8 0.00 0.0000000 87.9
2020-09-27 20:25:00 84.1 15.2 31.8 84.1 84.1 1.2 3.7 1.5 0.0 258.9 0.00 0.0000000 87.8
2020-09-27 20:30:00 83.4 16.7 33.6 83.4 83.4 0.8 1.3 0.6 93.0 158.5 0.00 0.0000000 87.7
2020-09-27 20:35:00 82.8 17.2 33.7 82.8 82.8 1.5 1.9 0.8 117.6 96.6 0.00 0.0000000 87.6
2020-09-27 20:40:00 81.7 18.4 34.6 81.7 81.7 1.9 2.1 0.6 105.0 117.9 0.00 0.0000000 87.5
2020-09-27 20:45:00 80.8 18.2 33.7 80.8 80.8 0.8 2.1 0.9 73.6 92.2 0.00 0.0000000 87.4
2020-09-27 20:50:00 80.7 16.4 30.9 80.7 80.7 0.8 2.6 1.3 209.5 189.3 0.00 0.0000000 87.3
2020-09-27 20:55:00 80.7 18.3 33.7 80.7 80.7 1.3 1.9 0.6 112.2 100.3 0.00 0.0000000 87.2
2020-09-27 21:00:00 80.5 17.9 33.1 80.5 80.5 0.0 1.7 0.9 48.5 92.7 0.00 0.0000000 87.2
2020-09-27 21:05:00 80.2 16.2 30.2 80.2 80.2 1.3 3.7 1.3 274.0 85.9 0.00 0.0000000 87.1
2020-09-27 21:10:00 81.1 15.6 29.9 81.1 81.1 3.0 3.3 1.9 10.0 16.2 0.00 0.0000000 87.0

Data is courtesy of the NM Climate Center. DO NOT USE IN LEGAL PROCEEDINGS.